Time;durP1;ratioP1;P1;durP2;ratioP2;P2;SDS_P1;SDS_P2;PMS_P1;PMS_P2;Temp;Humidity;BMP_temperature;BMP_pressure;BME280_temperature;BME280_humidity;BME280_pressure;Samples;Min_cycle;Max_cycle;Signal;HPM_P1;HPM_P2
2022/07/03 00:02:22;;;;;;;6.57;2.20;;;;;;;;;;5088863;28;20052;-67
2022/07/03 00:04:47;;;;;;;5.75;2.50;;;;;;;;;;5083352;28;21616;-67
2022/07/03 00:07:12;;;;;;;5.40;2.63;;;;;;;;;;5072986;28;20563;-67
2022/07/03 00:09:37;;;;;;;4.68;2.55;;;;;;;;;;5071833;28;20027;-67
2022/07/03 00:12:04;;;;;;;6.82;2.63;;;;;;;;;;5090900;28;20016;-67
2022/07/03 00:14:30;;;;;;;6.32;2.55;;;;;;;;;;5091888;28;20057;-67
2022/07/03 00:16:55;;;;;;;9.63;3.20;;;;;;;;;;5092696;28;20531;-67
2022/07/03 00:19:20;;;;;;;8.23;2.97;;;;;;;;;;5092425;28;20091;-67
2022/07/03 00:21:49;;;;;;;4.60;2.67;;;;;;;;;;5090366;28;20051;-67
2022/07/03 00:24:31;;;;;;;7.68;3.55;;;;;;;;;;5091562;28;20023;-67
2022/07/03 00:26:58;;;;;;;6.78;3.25;;;;;;;;;;5091381;28;20028;-67
2022/07/03 00:29:25;;;;;;;5.65;3.20;;;;;;;;;;5092472;28;20020;-67
2022/07/03 00:31:50;;;;;;;8.45;3.30;;;;;;;;;;5090865;28;20016;-67
2022/07/03 00:34:16;;;;;;;7.90;3.70;;;;;;;;;;5092353;28;20030;-67
2022/07/03 00:36:42;;;;;;;10.50;4.00;;;;;;;;;;5079083;28;20494;-67
2022/07/03 00:39:07;;;;;;;6.97;4.00;;;;;;;;;;5072392;28;20096;-67
2022/07/03 00:41:34;;;;;;;7.53;3.70;;;;;;;;;;5076750;28;20040;-67
2022/07/03 00:43:59;;;;;;;7.30;3.67;;;;;;;;;;5071422;28;20032;-67
2022/07/03 00:46:25;;;;;;;6.53;4.85;;;;;;;;;;5071843;28;20013;-67
2022/07/03 00:48:52;;;;;;;6.60;4.30;;;;;;;;;;5073602;28;20101;-67
2022/07/03 00:51:24;;;;;;;9.50;4.40;;;;;;;;;;5073998;28;20027;-67
2022/07/03 00:53:51;;;;;;;6.50;4.43;;;;;;;;;;5071533;28;20025;-67
2022/07/03 00:56:19;;;;;;;6.13;4.47;;;;;;;;;;5071879;28;20016;-67
2022/07/03 00:58:44;;;;;;;6.27;4.33;;;;;;;;;;5072012;28;20500;-67
2022/07/03 01:01:11;;;;;;;8.07;4.22;;;;;;;;;;5073545;28;20131;-67
2022/07/03 01:03:39;;;;;;;7.00;4.20;;;;;;;;;;5089934;28;20031;-67
2022/07/03 01:06:10;;;;;;;6.97;4.20;;;;;;;;;;5090167;28;20077;-67
2022/07/03 01:08:51;;;;;;;14.63;4.95;;;;;;;;;;5091808;28;20020;-67
2022/07/03 01:11:19;;;;;;;8.25;4.90;;;;;;;;;;5084469;28;20012;-67
2022/07/03 01:13:56;;;;;;;10.67;5.27;;;;;;;;;;5091488;28;20070;-67
2022/07/03 01:16:27;;;;;;;7.57;4.87;;;;;;;;;;5086628;28;20094;-67
2022/07/03 01:18:52;;;;;;;8.00;4.47;;;;;;;;;;5085980;28;20392;-67
2022/07/03 01:21:28;;;;;;;6.23;5.20;;;;;;;;;;5089036;28;20031;-67
2022/07/03 01:24:09;;;;;;;6.77;5.43;;;;;;;;;;5091193;28;20027;-67
2022/07/03 01:26:35;;;;;;;9.40;6.40;;;;;;;;;;5091587;28;20027;-67
2022/07/03 01:29:06;;;;;;;10.80;7.20;;;;;;;;;;5089479;28;20020;-67
2022/07/03 01:31:31;;;;;;;12.83;8.47;;;;;;;;;;5077667;28;20175;-67
2022/07/03 01:33:58;;;;;;;15.60;8.70;;;;;;;;;;5085237;28;20081;-67
2022/07/03 01:36:25;;;;;;;14.27;10.30;;;;;;;;;;5073148;28;20482;-67
2022/07/03 01:38:50;;;;;;;14.63;10.00;;;;;;;;;;5076098;28;20030;-68
2022/07/03 01:41:16;;;;;;;17.60;11.40;;;;;;;;;;5081033;28;20150;-68
2022/07/03 01:43:46;;;;;;;18.40;11.43;;;;;;;;;;5091212;28;20028;-68
2022/07/03 01:46:12;;;;;;;12.63;10.60;;;;;;;;;;5079384;28;20040;-67
2022/07/03 01:48:41;;;;;;;13.03;10.30;;;;;;;;;;5070701;28;20024;-68
2022/07/03 01:51:06;;;;;;;11.77;10.17;;;;;;;;;;5072939;28;20043;-68
2022/07/03 01:53:31;;;;;;;14.67;11.20;;;;;;;;;;5070917;28;20464;-68
2022/07/03 01:55:57;;;;;;;21.33;12.37;;;;;;;;;;5084630;28;20488;-68
2022/07/03 01:58:23;;;;;;;17.30;11.13;;;;;;;;;;5089692;28;20074;-68
2022/07/03 02:01:01;;;;;;;16.90;11.03;;;;;;;;;;5087594;28;20528;-67
2022/07/03 02:03:28;;;;;;;16.83;10.57;;;;;;;;;;5074637;28;20021;-67
2022/07/03 02:06:07;;;;;;;15.43;9.37;;;;;;;;;;5087719;28;20028;-67
2022/07/03 02:08:37;;;;;;;14.83;8.60;;;;;;;;;;5075249;28;20033;-67
2022/07/03 02:11:09;;;;;;;10.23;8.20;;;;;;;;;;5084902;28;20118;-68
2022/07/03 02:13:38;;;;;;;10.17;8.20;;;;;;;;;;5076736;28;20103;-68
2022/07/03 02:16:05;;;;;;;10.47;7.83;;;;;;;;;;5079815;28;20392;-68
2022/07/03 02:18:33;;;;;;;12.60;8.10;;;;;;;;;;5094039;28;20055;-68
2022/07/03 02:21:04;;;;;;;10.20;7.63;;;;;;;;;;5081869;28;20103;-68
2022/07/03 02:23:47;;;;;;;10.52;7.60;;;;;;;;;;5074815;28;20451;-67
2022/07/03 02:26:15;;;;;;;11.17;8.13;;;;;;;;;;5086323;28;20031;-67
2022/07/03 02:28:49;;;;;;;12.10;8.20;;;;;;;;;;5093236;28;20020;-68
2022/07/03 02:31:18;;;;;;;14.33;8.93;;;;;;;;;;5082494;28;20021;-68
2022/07/03 02:33:44;;;;;;;13.33;8.80;;;;;;;;;;5077894;28;20028;-68
2022/07/03 02:36:10;;;;;;;11.93;8.20;;;;;;;;;;5092448;28;20472;-67
2022/07/03 02:38:36;;;;;;;10.43;8.43;;;;;;;;;;5074542;28;20073;-68
2022/07/03 02:41:03;;;;;;;11.87;8.97;;;;;;;;;;5091968;28;20032;-68
2022/07/03 02:43:38;;;;;;;13.63;10.53;;;;;;;;;;5092582;28;20016;-67
2022/07/03 02:46:48;;;;;;;11.80;9.67;;;;;;;;;;5083550;28;20484;-67
2022/07/03 02:48:56;;;;;;;14.43;10.00;;;;;;;;;;5073823;28;20064;-67
2022/07/03 02:51:23;;;;;;;12.70;9.90;;;;;;;;;;5073307;28;20071;-68
2022/07/03 02:54:11;;;;;;;13.87;10.00;;;;;;;;;;5089573;28;20036;-68
2022/07/03 02:56:50;;;;;;;12.73;10.60;;;;;;;;;;5082992;28;20042;-68
2022/07/03 02:59:42;;;;;;;16.20;11.33;;;;;;;;;;5089044;28;20469;-67
2022/07/03 03:02:07;;;;;;;;;;;;;;;;;;5079976;28;20417;-67
2022/07/03 03:04:33;;;;;;;13.40;11.63;;;;;;;;;;5075756;28;20336;-67
2022/07/03 03:07:06;;;;;;;16.47;12.03;;;;;;;;;;5082033;28;20035;-68
2022/07/03 03:09:41;;;;;;;15.17;11.67;;;;;;;;;;5091666;28;20380;-68
2022/07/03 03:12:08;;;;;;;15.80;11.63;;;;;;;;;;5089750;28;20048;-68
2022/07/03 03:14:43;;;;;;;17.27;14.03;;;;;;;;;;5091766;28;20451;-68
2022/07/03 03:17:18;;;;;;;15.67;11.67;;;;;;;;;;5087933;28;20545;-68
2022/07/03 03:19:49;;;;;;;13.57;11.30;;;;;;;;;;5092894;28;20020;-67
2022/07/03 03:22:18;;;;;;;14.20;11.90;;;;;;;;;;5083035;28;20043;-67
2022/07/03 03:24:43;;;;;;;17.90;13.77;;;;;;;;;;5092858;28;20020;-68
2022/07/03 03:27:09;;;;;;;18.13;12.50;;;;;;;;;;5091958;28;20142;-68
2022/07/03 03:29:34;;;;;;;16.07;13.47;;;;;;;;;;5093453;28;20431;-68
2022/07/03 03:31:59;;;;;;;17.97;13.00;;;;;;;;;;5079819;28;20412;-68
2022/07/03 03:34:25;;;;;;;16.20;11.30;;;;;;;;;;5073310;28;20059;-68
2022/07/03 03:36:51;;;;;;;19.60;12.03;;;;;;;;;;5089474;28;20418;-68
2022/07/03 03:39:16;;;;;;;14.97;12.10;;;;;;;;;;5078490;28;20086;-68
2022/07/03 03:41:41;;;;;;;17.83;11.80;;;;;;;;;;5085378;28;20507;-68
2022/07/03 03:44:07;;;;;;;15.60;11.87;;;;;;;;;;5091951;28;20035;-68
2022/07/03 03:46:32;;;;;;;15.07;11.40;;;;;;;;;;5087909;28;20024;-67
2022/07/03 03:48:57;;;;;;;15.13;10.53;;;;;;;;;;5092272;28;20020;-67
2022/07/03 03:51:22;;;;;;;16.27;10.63;;;;;;;;;;5081086;28;20036;-67
2022/07/03 03:53:48;;;;;;;14.20;10.47;;;;;;;;;;5079641;28;20036;-67
2022/07/03 03:56:16;;;;;;;13.43;10.20;;;;;;;;;;5092341;28;20098;-68
2022/07/03 03:58:42;;;;;;;15.20;9.83;;;;;;;;;;5093118;28;20404;-67
2022/07/03 04:01:08;;;;;;;10.83;9.10;;;;;;;;;;5084664;28;20020;-68
2022/07/03 04:03:34;;;;;;;11.67;8.93;;;;;;;;;;5084011;28;20529;-68
2022/07/03 04:05:59;;;;;;;11.30;8.27;;;;;;;;;;5086013;28;20027;-68
2022/07/03 04:08:25;;;;;;;14.17;8.63;;;;;;;;;;5083663;28;20035;-68
2022/07/03 04:10:50;;;;;;;16.97;6.83;;;;;;;;;;5090682;28;20013;-68
2022/07/03 04:13:16;;;;;;;12.10;6.20;;;;;;;;;;5082802;28;20441;-68
2022/07/03 04:15:41;;;;;;;10.93;5.63;;;;;;;;;;5085384;28;20032;-68
2022/07/03 04:18:07;;;;;;;10.15;5.63;;;;;;;;;;5088840;28;20039;-68
2022/07/03 04:20:32;;;;;;;9.50;6.30;;;;;;;;;;5072032;28;20056;-68
2022/07/03 04:22:58;;;;;;;9.80;6.50;;;;;;;;;;5073642;28;20066;-68
2022/07/03 04:25:23;;;;;;;9.60;6.80;;;;;;;;;;5084679;28;20016;-68
2022/07/03 04:27:48;;;;;;;12.77;6.88;;;;;;;;;;5087050;28;20384;-68
2022/07/03 04:30:14;;;;;;;12.18;7.70;;;;;;;;;;5072593;28;20491;-68
2022/07/03 04:32:39;;;;;;;13.95;7.47;;;;;;;;;;5081697;28;20024;-67
2022/07/03 04:35:05;;;;;;;10.18;6.90;;;;;;;;;;5081342;28;20045;-68
2022/07/03 04:37:30;;;;;;;11.07;6.75;;;;;;;;;;5080303;28;20039;-68
2022/07/03 04:39:55;;;;;;;11.27;6.57;;;;;;;;;;5087468;28;20028;-68
2022/07/03 04:42:21;;;;;;;9.95;6.53;;;;;;;;;;5088560;28;20387;-68
2022/07/03 04:44:46;;;;;;;10.30;6.60;;;;;;;;;;5081462;28;20028;-68
2022/07/03 04:47:12;;;;;;;16.55;5.90;;;;;;;;;;5080715;28;20020;-69
2022/07/03 04:49:37;;;;;;;8.50;5.22;;;;;;;;;;5091853;28;20020;-68
2022/07/03 04:52:03;;;;;;;9.07;5.18;;;;;;;;;;5082372;28;20028;-68
2022/07/03 04:54:28;;;;;;;8.02;4.50;;;;;;;;;;5082547;28;20635;-69
2022/07/03 04:56:53;;;;;;;12.88;5.05;;;;;;;;;;5078831;28;20035;-69
2022/07/03 04:59:19;;;;;;;8.60;4.78;;;;;;;;;;5080444;28;20628;-69
2022/07/03 05:01:44;;;;;;;7.03;4.38;;;;;;;;;;5082783;28;20019;-68
2022/07/03 05:04:09;;;;;;;7.88;4.43;;;;;;;;;;5087039;28;20086;-69
2022/07/03 05:06:34;;;;;;;9.23;4.45;;;;;;;;;;5076206;28;20058;-68
2022/07/03 05:09:00;;;;;;;12.38;5.13;;;;;;;;;;5089999;28;20023;-69
2022/07/03 05:11:25;;;;;;;13.38;5.00;;;;;;;;;;5089685;28;20023;-68
2022/07/03 05:13:50;;;;;;;9.55;4.68;;;;;;;;;;5086803;28;20051;-69
2022/07/03 05:16:15;;;;;;;9.55;4.32;;;;;;;;;;5074343;28;20020;-68
2022/07/03 05:18:40;;;;;;;13.48;5.88;;;;;;;;;;5090161;28;20035;-69
2022/07/03 05:21:06;;;;;;;9.50;4.30;;;;;;;;;;5088196;28;20023;-69
2022/07/03 05:23:31;;;;;;;9.75;4.00;;;;;;;;;;5089163;28;20480;-69
2022/07/03 05:25:58;;;;;;;6.63;3.80;;;;;;;;;;5075980;28;20028;-69
2022/07/03 05:28:23;;;;;;;10.32;4.63;;;;;;;;;;5071972;28;20017;-69
2022/07/03 05:30:49;;;;;;;7.28;4.13;;;;;;;;;;5081825;28;20030;-69
2022/07/03 05:33:14;;;;;;;6.93;3.80;;;;;;;;;;5082489;28;20503;-69
2022/07/03 05:35:39;;;;;;;8.80;4.53;;;;;;;;;;5082799;28;20090;-68
2022/07/03 05:38:04;;;;;;;9.43;4.45;;;;;;;;;;5094101;28;20391;-68
2022/07/03 05:40:30;;;;;;;9.13;4.07;;;;;;;;;;5084565;28;20432;-69
2022/07/03 05:42:55;;;;;;;9.35;3.97;;;;;;;;;;5085745;28;20103;-69
2022/07/03 05:45:20;;;;;;;6.82;3.72;;;;;;;;;;5077844;28;20380;-68
2022/07/03 05:47:46;;;;;;;8.00;4.50;;;;;;;;;;5077280;28;20025;-69
2022/07/03 05:50:11;;;;;;;8.25;3.78;;;;;;;;;;5077384;28;20082;-69
2022/07/03 05:52:36;;;;;;;12.73;4.05;;;;;;;;;;5088984;28;20057;-69
2022/07/03 05:55:02;;;;;;;5.93;3.90;;;;;;;;;;5091168;28;20063;-69
2022/07/03 05:57:27;;;;;;;9.27;3.83;;;;;;;;;;5095504;28;20016;-69
2022/07/03 05:59:52;;;;;;;9.05;3.92;;;;;;;;;;5090991;28;20039;-69
2022/07/03 06:02:18;;;;;;;8.05;3.47;;;;;;;;;;5078468;28;20082;-69
2022/07/03 06:04:44;;;;;;;8.38;3.40;;;;;;;;;;5074662;28;20025;-68
2022/07/03 06:07:09;;;;;;;6.82;3.38;;;;;;;;;;5091737;28;20099;-69
2022/07/03 06:09:34;;;;;;;7.32;3.50;;;;;;;;;;5093520;28;20016;-69
2022/07/03 06:11:59;;;;;;;8.43;3.20;;;;;;;;;;5088411;28;20028;-69
2022/07/03 06:14:24;;;;;;;6.15;3.42;;;;;;;;;;5088029;28;20043;-69
2022/07/03 06:16:50;;;;;;;5.70;3.00;;;;;;;;;;5082937;28;20024;-69
2022/07/03 06:19:15;;;;;;;10.23;3.47;;;;;;;;;;5093222;28;20027;-69
2022/07/03 06:21:40;;;;;;;8.55;3.33;;;;;;;;;;5089748;28;20110;-69
2022/07/03 06:24:06;;;;;;;11.18;3.50;;;;;;;;;;5093659;28;20020;-69
2022/07/03 06:26:31;;;;;;;6.32;2.90;;;;;;;;;;5084281;28;20039;-69
2022/07/03 06:28:56;;;;;;;8.13;3.35;;;;;;;;;;5090325;28;20024;-69
2022/07/03 06:31:22;;;;;;;10.00;3.60;;;;;;;;;;5087768;28;20016;-69
2022/07/03 06:33:47;;;;;;;5.13;2.95;;;;;;;;;;5091738;28;20103;-69
2022/07/03 06:36:12;;;;;;;6.88;3.05;;;;;;;;;;5075595;28;20566;-69
2022/07/03 06:38:37;;;;;;;7.22;2.67;;;;;;;;;;5087352;28;20073;-69
2022/07/03 06:41:02;;;;;;;6.80;2.80;;;;;;;;;;5086577;28;20032;-70
2022/07/03 06:43:28;;;;;;;11.05;2.90;;;;;;;;;;5084743;28;20029;-68
2022/07/03 06:45:53;;;;;;;6.72;2.83;;;;;;;;;;5080291;28;20099;-68
2022/07/03 06:48:18;;;;;;;7.10;2.80;;;;;;;;;;5080239;28;20032;-68
2022/07/03 06:50:45;;;;;;;5.43;2.55;;;;;;;;;;5079710;28;20115;-69
2022/07/03 06:53:10;;;;;;;6.10;2.50;;;;;;;;;;5093909;28;20062;-68
2022/07/03 06:55:35;;;;;;;5.63;2.67;;;;;;;;;;5085838;28;20024;-68
2022/07/03 06:58:02;;;;;;;5.93;2.67;;;;;;;;;;5073448;28;20056;-68
2022/07/03 07:00:27;;;;;;;6.78;2.72;;;;;;;;;;5074909;28;20019;-68
2022/07/03 07:02:53;;;;;;;7.38;3.00;;;;;;;;;;5073509;28;20059;-68
2022/07/03 07:05:19;;;;;;;11.23;2.75;;;;;;;;;;5076946;28;20030;-68
2022/07/03 07:07:44;;;;;;;4.93;2.40;;;;;;;;;;5076788;28;20048;-68
2022/07/03 07:10:09;;;;;;;3.63;2.00;;;;;;;;;;5073671;28;20028;-68
2022/07/03 07:12:34;;;;;;;4.13;1.70;;;;;;;;;;5073841;28;20267;-68
2022/07/03 07:15:00;;;;;;;4.77;2.03;;;;;;;;;;5073922;28;20028;-68
2022/07/03 07:17:25;;;;;;;4.68;1.52;;;;;;;;;;5085605;28;20339;-68
2022/07/03 07:19:50;;;;;;;5.45;1.70;;;;;;;;;;5090333;28;20020;-68
2022/07/03 07:22:15;;;;;;;5.30;1.40;;;;;;;;;;5088090;28;20036;-67
2022/07/03 07:24:41;;;;;;;4.93;1.48;;;;;;;;;;5082513;28;20278;-67
2022/07/03 07:27:06;;;;;;;7.78;1.50;;;;;;;;;;5078351;28;20074;-68
2022/07/03 07:29:31;;;;;;;5.23;1.70;;;;;;;;;;5092232;28;20471;-68
2022/07/03 07:31:56;;;;;;;7.07;1.60;;;;;;;;;;5086335;28;20266;-68
2022/07/03 07:34:22;;;;;;;4.82;1.90;;;;;;;;;;5081827;28;20278;-68
2022/07/03 07:36:47;;;;;;;4.50;1.70;;;;;;;;;;5074100;28;20024;-68
2022/07/03 07:39:12;;;;;;;3.83;1.83;;;;;;;;;;5075125;28;20031;-68
2022/07/03 07:41:38;;;;;;;5.70;1.98;;;;;;;;;;5080758;28;20028;-67
2022/07/03 07:44:03;;;;;;;4.40;2.05;;;;;;;;;;5077746;28;20024;-68
2022/07/03 07:46:29;;;;;;;6.25;2.05;;;;;;;;;;5078998;28;20031;-68
2022/07/03 07:48:54;;;;;;;7.88;2.05;;;;;;;;;;5084465;28;20158;-67
2022/07/03 07:51:20;;;;;;;4.73;1.83;;;;;;;;;;5074957;28;20111;-67
2022/07/03 07:53:45;;;;;;;7.80;1.85;;;;;;;;;;5073602;28;20357;-67
2022/07/03 07:56:10;;;;;;;4.63;1.73;;;;;;;;;;5074870;28;20385;-67
2022/07/03 07:58:35;;;;;;;4.88;1.45;;;;;;;;;;5083865;28;20028;-67
2022/07/03 08:06:28;;;;;;;6.35;1.50;;;;;;;;;;5078882;28;20024;-67
2022/07/03 08:08:54;;;;;;;5.85;1.67;;;;;;;;;;5088900;28;20016;-67
2022/07/03 08:11:19;;;;;;;3.40;0.88;;;;;;;;;;5087356;28;20364;-67
2022/07/03 08:13:45;;;;;;;2.87;1.00;;;;;;;;;;5074045;28;20442;-68
2022/07/03 08:16:11;;;;;;;3.13;0.90;;;;;;;;;;5079417;28;20258;-67
2022/07/03 08:18:36;;;;;;;3.85;0.90;;;;;;;;;;5077274;28;20020;-68
2022/07/03 08:21:01;;;;;;;3.23;0.80;;;;;;;;;;5081346;28;20070;-68
2022/07/03 08:23:26;;;;;;;5.60;1.90;;;;;;;;;;5087732;28;20273;-67
2022/07/03 08:25:52;;;;;;;6.27;0.93;;;;;;;;;;5077838;28;20289;-67
2022/07/03 08:28:17;;;;;;;1.90;0.73;;;;;;;;;;5081881;28;20264;-68
2022/07/03 08:30:42;;;;;;;4.15;0.63;;;;;;;;;;5082608;28;20356;-67
2022/07/03 08:33:08;;;;;;;3.15;0.65;;;;;;;;;;5073350;28;20025;-67
2022/07/03 08:35:33;;;;;;;2.38;0.70;;;;;;;;;;5086747;28;20039;-67
2022/07/03 08:37:58;;;;;;;6.95;0.82;;;;;;;;;;5088165;28;20566;-67
2022/07/03 08:40:23;;;;;;;3.70;0.70;;;;;;;;;;5088614;28;20023;-67
2022/07/03 08:42:51;;;;;;;2.22;0.68;;;;;;;;;;5083518;28;20656;-67
2022/07/03 08:45:18;;;;;;;5.32;0.60;;;;;;;;;;5078590;28;20465;-67
2022/07/03 08:47:44;;;;;;;4.43;0.80;;;;;;;;;;5072120;28;20028;-67
2022/07/03 08:50:10;;;;;;;2.20;0.70;;;;;;;;;;5083321;28;20111;-67
2022/07/03 08:52:36;;;;;;;2.75;0.70;;;;;;;;;;5081591;28;20035;-68
2022/07/03 08:55:02;;;;;;;1.80;0.70;;;;;;;;;;5072111;28;20511;-67
2022/07/03 08:57:30;;;;;;;4.00;0.80;;;;;;;;;;5086994;28;20062;-67
2022/07/03 08:59:56;;;;;;;3.30;0.80;;;;;;;;;;5088969;28;20024;-67
2022/07/03 09:02:22;;;;;;;3.55;0.80;;;;;;;;;;5084255;28;20240;-67
2022/07/03 09:04:48;;;;;;;2.00;0.73;;;;;;;;;;5079208;28;20032;-67
2022/07/03 09:07:14;;;;;;;3.92;0.77;;;;;;;;;;5078665;28;20104;-67
2022/07/03 09:09:39;;;;;;;4.03;1.10;;;;;;;;;;5071379;28;20894;-67
2022/07/03 09:12:05;;;;;;;3.80;0.93;;;;;;;;;;5076323;28;20028;-67
2022/07/03 09:14:30;;;;;;;5.47;0.80;;;;;;;;;;5088499;28;20423;-67
2022/07/03 09:16:55;;;;;;;2.05;0.73;;;;;;;;;;5082864;28;20036;-67
2022/07/03 09:19:39;;;;;;;4.03;0.70;;;;;;;;;;5076632;28;20023;-67
2022/07/03 09:22:13;;;;;;;7.70;1.02;;;;;;;;;;5076576;28;20266;-67
2022/07/03 09:24:38;;;;;;;3.80;0.60;;;;;;;;;;5088715;28;20024;-67
2022/07/03 09:27:09;;;;;;;4.07;0.80;;;;;;;;;;5069954;28;20495;-68
2022/07/03 09:29:34;;;;;;;3.63;0.65;;;;;;;;;;5076828;28;20098;-68
2022/07/03 09:32:00;;;;;;;3.63;0.60;;;;;;;;;;5083823;28;20115;-67
2022/07/03 09:34:26;;;;;;;5.18;0.90;;;;;;;;;;5078251;28;20299;-67
2022/07/03 09:36:51;;;;;;;4.72;0.70;;;;;;;;;;5076465;28;20040;-67
2022/07/03 09:39:17;;;;;;;1.45;0.70;;;;;;;;;;5070903;28;20054;-67
2022/07/03 09:41:52;;;;;;;4.15;0.80;;;;;;;;;;5081789;28;20039;-67
2022/07/03 09:44:33;;;;;;;2.03;0.60;;;;;;;;;;5081673;28;20095;-67
2022/07/03 09:47:09;;;;;;;5.00;0.70;;;;;;;;;;5088432;28;20606;-67
2022/07/03 09:50:05;;;;;;;2.00;0.63;;;;;;;;;;5085073;28;20059;-67
2022/07/03 09:52:30;;;;;;;1.70;0.50;;;;;;;;;;5070811;28;20591;-68
2022/07/03 09:54:57;;;;;;;2.80;0.50;;;;;;;;;;5087065;28;20111;-67
2022/07/03 09:57:25;;;;;;;4.22;0.70;;;;;;;;;;5086682;28;20275;-67
2022/07/03 10:00:07;;;;;;;3.30;0.70;;;;;;;;;;5078838;28;20365;-68
2022/07/03 10:02:32;;;;;;;2.22;0.65;;;;;;;;;;5070019;28;20033;-68
2022/07/03 10:05:10;;;;;;;2.47;0.63;;;;;;;;;;5081125;28;20028;-67
2022/07/03 10:07:49;;;;;;;2.45;0.77;;;;;;;;;;5082932;28;20853;-67
2022/07/03 10:10:14;;;;;;;3.72;0.85;;;;;;;;;;5080496;28;20118;-67
2022/07/03 10:12:39;;;;;;;1.98;0.70;;;;;;;;;;5079204;28;20163;-67
2022/07/03 10:15:05;;;;;;;3.10;0.77;;;;;;;;;;5067994;28;20044;-67
2022/07/03 10:17:31;;;;;;;3.38;0.50;;;;;;;;;;5078546;28;20026;-67
2022/07/03 10:19:57;;;;;;;2.40;0.60;;;;;;;;;;5068979;28;20695;-67
2022/07/03 10:22:22;;;;;;;2.75;0.73;;;;;;;;;;5083506;28;20099;-67
2022/07/03 10:24:48;;;;;;;2.78;0.70;;;;;;;;;;5071611;28;20024;-67
2022/07/03 10:27:14;;;;;;;4.18;0.63;;;;;;;;;;5070892;28;20098;-67
2022/07/03 10:29:39;;;;;;;2.65;0.80;;;;;;;;;;5089285;28;20103;-67
2022/07/03 10:32:06;;;;;;;3.60;0.80;;;;;;;;;;5088526;28;20107;-67
2022/07/03 10:34:32;;;;;;;2.65;0.70;;;;;;;;;;5073091;28;20278;-67
2022/07/03 10:36:59;;;;;;;3.13;0.75;;;;;;;;;;5090007;28;20028;-67
2022/07/03 10:39:43;;;;;;;2.85;0.80;;;;;;;;;;5091148;28;20020;-67
2022/07/03 10:45:05;;;;;;;3.42;0.80;;;;;;;;;;5075344;28;20121;-68
2022/07/03 10:47:40;;;;;;;2.85;0.80;;;;;;;;;;5081317;28;20023;-68
2022/07/03 10:50:10;;;;;;;2.33;0.70;;;;;;;;;;5081643;28;20070;-67
2022/07/03 10:52:35;;;;;;;3.83;0.65;;;;;;;;;;5083364;28;20029;-67
2022/07/03 10:55:03;;;;;;;3.30;0.70;;;;;;;;;;5087784;28;20034;-67
2022/07/03 10:57:28;;;;;;;2.00;0.80;;;;;;;;;;5076520;28;20036;-67
2022/07/03 10:59:53;;;;;;;3.10;0.80;;;;;;;;;;5071639;28;20020;-68
2022/07/03 11:02:30;;;;;;;5.40;0.80;;;;;;;;;;5078234;28;20516;-67
2022/07/03 11:05:02;;;;;;;4.45;1.00;;;;;;;;;;5070531;28;20024;-68
2022/07/03 11:07:28;;;;;;;2.30;0.80;;;;;;;;;;5072296;28;20017;-67
2022/07/03 11:10:05;;;;;;;3.13;1.05;;;;;;;;;;5086146;28;20020;-67
2022/07/03 11:13:00;;;;;;;3.53;1.10;;;;;;;;;;5082097;28;20099;-67
2022/07/03 11:15:37;;;;;;;3.25;0.90;;;;;;;;;;5084612;28;20108;-67
2022/07/03 11:18:05;;;;;;;2.85;0.70;;;;;;;;;;5081098;28;20108;-67
2022/07/03 11:20:31;;;;;;;2.67;0.80;;;;;;;;;;5072299;28;20028;-67
2022/07/03 11:23:02;;;;;;;4.68;0.90;;;;;;;;;;5083621;28;20035;-67
2022/07/03 11:25:37;;;;;;;2.55;0.70;;;;;;;;;;5085007;28;20464;-67
2022/07/03 11:28:03;;;;;;;2.65;0.93;;;;;;;;;;5091247;28;20039;-67
2022/07/03 11:30:29;;;;;;;1.95;0.70;;;;;;;;;;5084058;28;20039;-67
2022/07/03 11:32:57;;;;;;;3.45;0.85;;;;;;;;;;5091586;28;20032;-67
2022/07/03 11:35:41;;;;;;;4.88;0.90;;;;;;;;;;5088651;28;20380;-67
2022/07/03 11:38:06;;;;;;;2.70;0.77;;;;;;;;;;5073179;28;20060;-67
2022/07/03 11:40:35;;;;;;;2.92;0.73;;;;;;;;;;5092489;28;20071;-67
2022/07/03 11:43:00;;;;;;;3.42;0.73;;;;;;;;;;5091158;28;20472;-67
2022/07/03 11:45:28;;;;;;;2.65;0.70;;;;;;;;;;5085166;28;20109;-67
2022/07/03 11:47:53;;;;;;;1.98;0.60;;;;;;;;;;5078530;28;20025;-67
2022/07/03 11:50:19;;;;;;;3.35;0.70;;;;;;;;;;5079880;28;20021;-67
2022/07/03 11:52:44;;;;;;;2.97;0.65;;;;;;;;;;5074752;28;20029;-67
2022/07/03 11:55:09;;;;;;;3.88;0.80;;;;;;;;;;5080532;28;20085;-67
2022/07/03 11:57:34;;;;;;;2.38;0.60;;;;;;;;;;5073906;28;20027;-67
2022/07/03 12:00:04;;;;;;;2.35;0.70;;;;;;;;;;5078632;28;20123;-67
2022/07/03 12:02:29;;;;;;;3.67;0.80;;;;;;;;;;5072277;28;20095;-67
2022/07/03 12:04:54;;;;;;;2.30;0.70;;;;;;;;;;5072330;28;20119;-67
2022/07/03 12:07:19;;;;;;;5.18;0.80;;;;;;;;;;5073761;28;20020;-67
2022/07/03 12:09:45;;;;;;;4.05;0.80;;;;;;;;;;5072234;28;20017;-67
2022/07/03 12:12:10;;;;;;;2.72;0.70;;;;;;;;;;5092166;28;20084;-67
2022/07/03 12:14:45;;;;;;;2.45;0.60;;;;;;;;;;5087831;28;20082;-67
2022/07/03 12:17:15;;;;;;;1.33;0.60;;;;;;;;;;5084770;28;20060;-67
2022/07/03 12:19:47;;;;;;;1.48;0.60;;;;;;;;;;5086957;28;20548;-67
2022/07/03 12:22:21;;;;;;;1.67;0.70;;;;;;;;;;5084853;28;20116;-67
2022/07/03 12:24:54;;;;;;;1.35;0.63;;;;;;;;;;5090669;28;20165;-68
2022/07/03 12:27:19;;;;;;;3.55;0.80;;;;;;;;;;5072902;28;20515;-67
2022/07/03 12:29:45;;;;;;;3.38;0.73;;;;;;;;;;5079587;28;20021;-67
2022/07/03 12:32:10;;;;;;;4.32;0.75;;;;;;;;;;5078280;28;20082;-67
2022/07/03 12:34:36;;;;;;;5.93;1.42;;;;;;;;;;5085926;28;20385;-67
2022/07/03 12:37:01;;;;;;;5.32;0.70;;;;;;;;;;5091220;28;20056;-67
2022/07/03 12:39:42;;;;;;;2.58;0.77;;;;;;;;;;5086930;28;20028;-67
2022/07/03 12:42:13;;;;;;;2.15;0.82;;;;;;;;;;5087490;28;20052;-67
2022/07/03 12:44:39;;;;;;;2.35;0.80;;;;;;;;;;5091572;28;20032;-67
2022/07/03 12:47:04;;;;;;;2.17;0.80;;;;;;;;;;5090354;28;20031;-67
2022/07/03 12:49:30;;;;;;;3.92;0.88;;;;;;;;;;5080081;28;20021;-67
2022/07/03 12:51:57;;;;;;;3.50;0.80;;;;;;;;;;5077780;28;20383;-67
2022/07/03 12:54:31;;;;;;;4.05;0.90;;;;;;;;;;5079598;28;20036;-67
2022/07/03 12:59:16;;;;;;;2.53;0.70;;;;;;;;;;5084680;28;20535;-67
2022/07/03 12:59:47;;;;;;;;;;;;;;;;;;5076761;28;20064;-67
2022/07/03 13:02:13;;;;;;;2.60;0.70;;;;;;;;;;5074262;28;19962;-67
2022/07/03 13:04:39;;;;;;;3.58;0.88;;;;;;;;;;5074257;28;20063;-67
2022/07/03 13:07:06;;;;;;;4.38;0.70;;;;;;;;;;5072391;28;20020;-67
2022/07/03 13:09:32;;;;;;;2.58;0.70;;;;;;;;;;5071684;28;20044;-67
2022/07/03 13:11:57;;;;;;;5.10;1.10;;;;;;;;;;5071981;28;20055;-67
2022/07/03 13:14:24;;;;;;;4.80;0.90;;;;;;;;;;5079789;28;20037;-67
2022/07/03 13:16:50;;;;;;;6.25;0.90;;;;;;;;;;5074645;28;20035;-67
2022/07/03 13:19:16;;;;;;;2.08;0.85;;;;;;;;;;5086052;28;20024;-67
2022/07/03 13:21:43;;;;;;;4.22;1.00;;;;;;;;;;5081072;28;20031;-67
2022/07/03 13:24:08;;;;;;;5.00;0.80;;;;;;;;;;5082595;28;20032;-67
2022/07/03 13:26:33;;;;;;;3.67;1.08;;;;;;;;;;5090407;28;20371;-68
2022/07/03 13:28:59;;;;;;;5.18;1.13;;;;;;;;;;5089813;28;20066;-67
2022/07/03 13:31:24;;;;;;;4.45;1.00;;;;;;;;;;5091223;28;20103;-67
2022/07/03 13:33:49;;;;;;;2.92;1.00;;;;;;;;;;5090958;28;20016;-67
2022/07/03 13:36:16;;;;;;;9.95;1.30;;;;;;;;;;5072772;28;20027;-67
2022/07/03 13:38:42;;;;;;;8.38;1.20;;;;;;;;;;5078938;28;20396;-67
2022/07/03 13:41:07;;;;;;;4.88;1.10;;;;;;;;;;5080838;28;20032;-67
2022/07/03 13:43:32;;;;;;;3.00;1.00;;;;;;;;;;5090930;28;20024;-66
2022/07/03 13:45:58;;;;;;;2.97;1.13;;;;;;;;;;5083600;28;20080;-66
2022/07/03 13:48:24;;;;;;;7.30;1.08;;;;;;;;;;5075144;28;20012;-67
2022/07/03 13:50:49;;;;;;;3.35;1.10;;;;;;;;;;5075169;28;20017;-67
2022/07/03 13:53:14;;;;;;;4.50;1.15;;;;;;;;;;5077236;28;20019;-67
2022/07/03 13:55:40;;;;;;;2.58;1.08;;;;;;;;;;5081226;28;20043;-67
2022/07/03 13:58:06;;;;;;;3.83;1.08;;;;;;;;;;5083371;28;20020;-67
2022/07/03 14:00:31;;;;;;;4.38;1.17;;;;;;;;;;5074696;28;20081;-67
2022/07/03 14:02:56;;;;;;;3.53;1.27;;;;;;;;;;5088961;28;20069;-67
2022/07/03 14:05:22;;;;;;;5.18;1.17;;;;;;;;;;5090769;28;20012;-67
2022/07/03 14:07:48;;;;;;;4.28;1.25;;;;;;;;;;5089652;28;20032;-67
2022/07/03 14:10:14;;;;;;;4.38;1.33;;;;;;;;;;5078337;28;20016;-66
2022/07/03 14:12:39;;;;;;;7.10;1.48;;;;;;;;;;5094981;28;20023;-67
2022/07/03 14:15:05;;;;;;;6.32;1.60;;;;;;;;;;5092510;28;20028;-67
2022/07/03 14:17:30;;;;;;;11.93;2.05;;;;;;;;;;5081340;28;20016;-67
2022/07/03 14:19:55;;;;;;;8.05;1.40;;;;;;;;;;5075696;28;20038;-67
2022/07/03 14:22:20;;;;;;;5.28;1.40;;;;;;;;;;5080146;28;20533;-67
2022/07/03 14:24:45;;;;;;;5.70;1.30;;;;;;;;;;5090003;28;20122;-67
2022/07/03 14:32:38;;;;;;;6.28;1.20;;;;;;;;;;5093905;28;20059;-67
2022/07/03 14:35:04;;;;;;;6.05;1.15;;;;;;;;;;5092028;28;20060;-66
2022/07/03 14:37:29;;;;;;;4.40;1.10;;;;;;;;;;5080294;28;20024;-67
2022/07/03 14:39:54;;;;;;;5.53;1.20;;;;;;;;;;5092326;28;20097;-67
2022/07/03 14:42:20;;;;;;;3.72;1.10;;;;;;;;;;5080510;28;20025;-67
2022/07/03 14:44:45;;;;;;;6.68;1.20;;;;;;;;;;5076998;28;20035;-67
2022/07/03 14:47:10;;;;;;;3.20;1.15;;;;;;;;;;5082821;28;20100;-67
2022/07/03 14:49:36;;;;;;;5.07;1.20;;;;;;;;;;5079687;28;20036;-67
2022/07/03 14:52:01;;;;;;;4.15;1.17;;;;;;;;;;5073793;28;20048;-67
2022/07/03 14:54:27;;;;;;;3.65;1.30;;;;;;;;;;5074489;28;20059;-67